sensor_id;sensor_type;location;lat;lon;timestamp;pressure;altitude;pressure_sealevel;temperature;humidity
63903;BME280;50072;50.678;13.938;2022-12-18T00:01:25;101130.38;;;-9.05;83.58
63903;BME280;50072;50.678;13.938;2022-12-18T00:03:53;101128.34;;;-9.09;83.78
63903;BME280;50072;50.678;13.938;2022-12-18T00:06:19;101135.56;;;-9.05;83.99
63903;BME280;50072;50.678;13.938;2022-12-18T00:08:47;101142.41;;;-8.83;85.36
63903;BME280;50072;50.678;13.938;2022-12-18T00:11:18;101140.53;;;-8.74;85.46
63903;BME280;50072;50.678;13.938;2022-12-18T00:13:45;101134.56;;;-8.73;85.84
63903;BME280;50072;50.678;13.938;2022-12-18T00:16:13;101150.69;;;-8.65;85.50
63903;BME280;50072;50.678;13.938;2022-12-18T00:18:40;101157.47;;;-8.68;84.71
63903;BME280;50072;50.678;13.938;2022-12-18T00:21:07;101153.94;;;-8.68;84.06
63903;BME280;50072;50.678;13.938;2022-12-18T00:23:35;101153.81;;;-8.81;82.93
63903;BME280;50072;50.678;13.938;2022-12-18T00:26:03;101148.94;;;-8.89;82.76
63903;BME280;50072;50.678;13.938;2022-12-18T00:28:29;101153.41;;;-8.98;83.14
63903;BME280;50072;50.678;13.938;2022-12-18T00:33:27;101157.38;;;-9.25;82.84
63903;BME280;50072;50.678;13.938;2022-12-18T00:35:53;101153.34;;;-9.22;83.94
63903;BME280;50072;50.678;13.938;2022-12-18T00:38:19;101158.31;;;-9.25;83.96
63903;BME280;50072;50.678;13.938;2022-12-18T00:40:45;101158.22;;;-9.37;83.64
63903;BME280;50072;50.678;13.938;2022-12-18T00:43:10;101169.56;;;-9.24;83.43
63903;BME280;50072;50.678;13.938;2022-12-18T00:45:36;101171.13;;;-9.26;83.09
63903;BME280;50072;50.678;13.938;2022-12-18T00:48:02;101175.16;;;-9.30;83.25
63903;BME280;50072;50.678;13.938;2022-12-18T00:50:28;101177.84;;;-9.40;83.41
63903;BME280;50072;50.678;13.938;2022-12-18T00:52:54;101174.13;;;-9.54;83.22
63903;BME280;50072;50.678;13.938;2022-12-18T00:55:19;101175.91;;;-9.75;83.05
63903;BME280;50072;50.678;13.938;2022-12-18T00:57:45;101180.91;;;-9.89;83.39
63903;BME280;50072;50.678;13.938;2022-12-18T01:00:13;101185.28;;;-9.88;83.46
63903;BME280;50072;50.678;13.938;2022-12-18T01:02:40;101179.56;;;-9.73;84.52
63903;BME280;50072;50.678;13.938;2022-12-18T01:05:08;101193.22;;;-9.64;84.64
63903;BME280;50072;50.678;13.938;2022-12-18T01:07:34;101184.16;;;-9.69;83.85
63903;BME280;50072;50.678;13.938;2022-12-18T01:10:00;101197.75;;;-9.61;83.44
63903;BME280;50072;50.678;13.938;2022-12-18T01:12:25;101206.94;;;-9.55;83.55
63903;BME280;50072;50.678;13.938;2022-12-18T01:14:51;101210.25;;;-9.45;83.44
63903;BME280;50072;50.678;13.938;2022-12-18T01:17:35;101210.78;;;-9.49;82.32
63903;BME280;50072;50.678;13.938;2022-12-18T01:20:01;101208.47;;;-9.57;82.53
63903;BME280;50072;50.678;13.938;2022-12-18T01:22:27;101215.38;;;-9.57;81.87
63903;BME280;50072;50.678;13.938;2022-12-18T01:24:53;101216.06;;;-9.38;82.90
63903;BME280;50072;50.678;13.938;2022-12-18T01:27:18;101222.28;;;-9.13;85.54
63903;BME280;50072;50.678;13.938;2022-12-18T01:29:44;101215.19;;;-9.04;85.96
63903;BME280;50072;50.678;13.938;2022-12-18T01:32:10;101216.09;;;-9.04;85.68
63903;BME280;50072;50.678;13.938;2022-12-18T01:34:37;101208.69;;;-8.99;85.85
63903;BME280;50072;50.678;13.938;2022-12-18T01:37:04;101222.44;;;-9.00;85.64
63903;BME280;50072;50.678;13.938;2022-12-18T01:39:34;101224.91;;;-9.02;87.60
63903;BME280;50072;50.678;13.938;2022-12-18T01:42:12;101214.44;;;-9.03;90.12
63903;BME280;50072;50.678;13.938;2022-12-18T01:50:40;101215.19;;;-9.04;88.35
63903;BME280;50072;50.678;13.938;2022-12-18T01:53:10;101222.69;;;-9.19;88.25
63903;BME280;50072;50.678;13.938;2022-12-18T01:55:40;101216.88;;;-9.27;88.62
63903;BME280;50072;50.678;13.938;2022-12-18T01:58:09;101223.91;;;-9.26;88.86
63903;BME280;50072;50.678;13.938;2022-12-18T02:00:35;101223.25;;;-9.23;88.86
63903;BME280;50072;50.678;13.938;2022-12-18T02:03:04;101230.59;;;-9.17;88.56
63903;BME280;50072;50.678;13.938;2022-12-18T02:10:45;101228.53;;;-8.99;87.79
63903;BME280;50072;50.678;13.938;2022-12-18T02:13:24;101237.78;;;-9.03;87.24
63903;BME280;50072;50.678;13.938;2022-12-18T02:18:41;101247.41;;;-9.12;87.58
63903;BME280;50072;50.678;13.938;2022-12-18T02:24:13;101257.19;;;-9.20;88.51
63903;BME280;50072;50.678;13.938;2022-12-18T02:26:49;101242.94;;;-9.25;89.15
63903;BME280;50072;50.678;13.938;2022-12-18T02:29:20;101256.00;;;-9.13;89.31
63903;BME280;50072;50.678;13.938;2022-12-18T02:31:54;101258.28;;;-9.06;89.84
63903;BME280;50072;50.678;13.938;2022-12-18T02:34:24;101247.91;;;-9.06;90.21
63903;BME280;50072;50.678;13.938;2022-12-18T02:36:52;101252.69;;;-9.00;89.49
63903;BME280;50072;50.678;13.938;2022-12-18T02:39:20;101257.06;;;-8.99;88.26
63903;BME280;50072;50.678;13.938;2022-12-18T02:41:47;101257.13;;;-8.88;88.66
63903;BME280;50072;50.678;13.938;2022-12-18T02:44:14;101261.75;;;-8.83;88.99
63903;BME280;50072;50.678;13.938;2022-12-18T02:46:53;101262.50;;;-8.74;88.77
63903;BME280;50072;50.678;13.938;2022-12-18T02:49:29;101264.06;;;-8.76;88.51
63903;BME280;50072;50.678;13.938;2022-12-18T02:57:24;101264.94;;;-8.88;88.51
63903;BME280;50072;50.678;13.938;2022-12-18T03:00:29;101261.06;;;-8.93;88.40
63903;BME280;50072;50.678;13.938;2022-12-18T03:03:23;101255.22;;;-8.90;87.71
63903;BME280;50072;50.678;13.938;2022-12-18T03:06:05;101257.78;;;-8.90;86.87
63903;BME280;50072;50.678;13.938;2022-12-18T03:08:37;101262.44;;;-8.86;86.45
63903;BME280;50072;50.678;13.938;2022-12-18T03:11:08;101272.50;;;-8.79;85.85
63903;BME280;50072;50.678;13.938;2022-12-18T03:13:48;101264.72;;;-8.79;85.20
63903;BME280;50072;50.678;13.938;2022-12-18T03:16:22;101261.28;;;-8.90;85.01
63903;BME280;50072;50.678;13.938;2022-12-18T03:18:56;101262.03;;;-8.80;85.23
63903;BME280;50072;50.678;13.938;2022-12-18T03:21:28;101258.00;;;-8.99;85.03
63903;BME280;50072;50.678;13.938;2022-12-18T03:23:57;101255.75;;;-8.94;85.71
63903;BME280;50072;50.678;13.938;2022-12-18T03:26:26;101259.47;;;-8.91;86.10
63903;BME280;50072;50.678;13.938;2022-12-18T03:29:04;101259.03;;;-8.85;86.11
63903;BME280;50072;50.678;13.938;2022-12-18T03:31:35;101252.88;;;-8.75;85.99
63903;BME280;50072;50.678;13.938;2022-12-18T03:34:06;101266.59;;;-8.66;85.71
63903;BME280;50072;50.678;13.938;2022-12-18T03:36:35;101261.63;;;-8.63;85.47
63903;BME280;50072;50.678;13.938;2022-12-18T03:39:00;101265.72;;;-8.55;85.37
63903;BME280;50072;50.678;13.938;2022-12-18T03:41:41;101272.03;;;-8.51;85.20
63903;BME280;50072;50.678;13.938;2022-12-18T03:44:20;101276.34;;;-8.40;85.06
63903;BME280;50072;50.678;13.938;2022-12-18T03:46:54;101275.97;;;-8.10;85.73
63903;BME280;50072;50.678;13.938;2022-12-18T03:52:17;101289.81;;;-7.88;84.56
63903;BME280;50072;50.678;13.938;2022-12-18T03:54:46;101283.22;;;-7.83;84.10
63903;BME280;50072;50.678;13.938;2022-12-18T03:57:21;101280.63;;;-7.83;83.35
63903;BME280;50072;50.678;13.938;2022-12-18T03:59:51;101279.19;;;-7.91;84.27
63903;BME280;50072;50.678;13.938;2022-12-18T04:02:20;101279.06;;;-7.81;84.40
63903;BME280;50072;50.678;13.938;2022-12-18T04:04:52;101289.69;;;-7.77;83.61
63903;BME280;50072;50.678;13.938;2022-12-18T04:07:20;101295.88;;;-7.75;83.67
63903;BME280;50072;50.678;13.938;2022-12-18T04:09:48;101301.56;;;-7.69;83.78
63903;BME280;50072;50.678;13.938;2022-12-18T04:12:14;101297.25;;;-7.57;83.71
63903;BME280;50072;50.678;13.938;2022-12-18T04:14:40;101294.91;;;-7.54;83.79
63903;BME280;50072;50.678;13.938;2022-12-18T04:17:06;101287.97;;;-7.41;83.30
63903;BME280;50072;50.678;13.938;2022-12-18T04:19:32;101295.44;;;-7.34;82.81
63903;BME280;50072;50.678;13.938;2022-12-18T04:21:58;101293.31;;;-7.28;82.85
63903;BME280;50072;50.678;13.938;2022-12-18T04:24:27;101307.31;;;-7.26;83.67
63903;BME280;50072;50.678;13.938;2022-12-18T04:26:53;101301.53;;;-7.22;84.08
63903;BME280;50072;50.678;13.938;2022-12-18T04:29:19;101297.91;;;-7.12;83.60
63903;BME280;50072;50.678;13.938;2022-12-18T04:31:45;101307.41;;;-7.01;83.66
63903;BME280;50072;50.678;13.938;2022-12-18T04:34:11;101303.31;;;-6.97;83.06
63903;BME280;50072;50.678;13.938;2022-12-18T04:36:37;101308.28;;;-7.00;82.84
63903;BME280;50072;50.678;13.938;2022-12-18T04:39:02;101304.13;;;-6.98;82.31
63903;BME280;50072;50.678;13.938;2022-12-18T04:41:28;101313.94;;;-6.94;83.14
63903;BME280;50072;50.678;13.938;2022-12-18T04:43:54;101314.19;;;-6.91;83.58
63903;BME280;50072;50.678;13.938;2022-12-18T04:46:20;101309.81;;;-6.79;83.23
63903;BME280;50072;50.678;13.938;2022-12-18T04:48:46;101319.66;;;-6.74;82.29
63903;BME280;50072;50.678;13.938;2022-12-18T04:51:12;101323.41;;;-6.83;81.96
63903;BME280;50072;50.678;13.938;2022-12-18T04:53:38;101315.28;;;-6.87;82.58
63903;BME280;50072;50.678;13.938;2022-12-18T04:56:10;101312.78;;;-6.86;83.06
63903;BME280;50072;50.678;13.938;2022-12-18T04:58:37;101326.13;;;-6.81;82.71
63903;BME280;50072;50.678;13.938;2022-12-18T05:01:03;101320.91;;;-6.69;83.32
63903;BME280;50072;50.678;13.938;2022-12-18T05:03:29;101323.50;;;-6.69;82.90
63903;BME280;50072;50.678;13.938;2022-12-18T05:05:55;101311.75;;;-6.76;83.47
63903;BME280;50072;50.678;13.938;2022-12-18T05:08:21;101318.66;;;-6.77;83.54
63903;BME280;50072;50.678;13.938;2022-12-18T05:10:47;101326.06;;;-6.57;84.00
63903;BME280;50072;50.678;13.938;2022-12-18T05:13:13;101327.41;;;-6.51;83.54
63903;BME280;50072;50.678;13.938;2022-12-18T05:15:39;101329.22;;;-6.50;83.61
63903;BME280;50072;50.678;13.938;2022-12-18T05:18:05;101337.09;;;-6.36;83.54
63903;BME280;50072;50.678;13.938;2022-12-18T05:20:31;101342.56;;;-6.45;83.71
63903;BME280;50072;50.678;13.938;2022-12-18T05:22:57;101336.06;;;-6.38;84.07
63903;BME280;50072;50.678;13.938;2022-12-18T05:25:23;101337.47;;;-6.44;83.86
63903;BME280;50072;50.678;13.938;2022-12-18T05:27:49;101340.66;;;-6.48;84.21
63903;BME280;50072;50.678;13.938;2022-12-18T05:30:15;101333.47;;;-6.38;84.25
63903;BME280;50072;50.678;13.938;2022-12-18T05:32:41;101328.25;;;-6.38;84.24
63903;BME280;50072;50.678;13.938;2022-12-18T05:35:09;101335.94;;;-6.28;84.52
63903;BME280;50072;50.678;13.938;2022-12-18T05:37:36;101331.03;;;-6.23;84.27
63903;BME280;50072;50.678;13.938;2022-12-18T05:40:03;101343.78;;;-6.15;84.36
63903;BME280;50072;50.678;13.938;2022-12-18T05:42:30;101350.81;;;-6.14;83.79
63903;BME280;50072;50.678;13.938;2022-12-18T05:44:56;101341.28;;;-6.13;84.06
63903;BME280;50072;50.678;13.938;2022-12-18T05:47:22;101329.41;;;-6.21;83.91
63903;BME280;50072;50.678;13.938;2022-12-18T05:49:48;101343.41;;;-6.33;84.15
63903;BME280;50072;50.678;13.938;2022-12-18T05:52:14;101347.66;;;-6.21;83.79
63903;BME280;50072;50.678;13.938;2022-12-18T05:54:40;101353.22;;;-6.17;83.77
63903;BME280;50072;50.678;13.938;2022-12-18T05:57:05;101357.84;;;-6.13;83.68
63903;BME280;50072;50.678;13.938;2022-12-18T05:59:31;101348.81;;;-6.04;83.69
63903;BME280;50072;50.678;13.938;2022-12-18T06:01:57;101356.03;;;-6.14;83.43
63903;BME280;50072;50.678;13.938;2022-12-18T06:04:23;101367.69;;;-5.95;83.75
63903;BME280;50072;50.678;13.938;2022-12-18T06:06:49;101364.91;;;-5.98;83.62
63903;BME280;50072;50.678;13.938;2022-12-18T06:09:15;101364.84;;;-6.12;83.36
63903;BME280;50072;50.678;13.938;2022-12-18T06:11:41;101362.81;;;-6.16;83.81
63903;BME280;50072;50.678;13.938;2022-12-18T06:14:08;101369.22;;;-6.24;83.70
63903;BME280;50072;50.678;13.938;2022-12-18T06:16:35;101363.66;;;-6.29;84.47
63903;BME280;50072;50.678;13.938;2022-12-18T06:19:03;101368.03;;;-6.16;84.36
63903;BME280;50072;50.678;13.938;2022-12-18T06:21:30;101369.56;;;-6.06;83.90
63903;BME280;50072;50.678;13.938;2022-12-18T06:23:59;101378.13;;;-5.95;83.89
63903;BME280;50072;50.678;13.938;2022-12-18T06:26:25;101376.28;;;-6.10;84.00
63903;BME280;50072;50.678;13.938;2022-12-18T06:28:52;101380.94;;;-6.05;84.51
63903;BME280;50072;50.678;13.938;2022-12-18T06:31:18;101385.16;;;-5.94;84.68
63903;BME280;50072;50.678;13.938;2022-12-18T06:33:44;101382.13;;;-6.00;84.44
63903;BME280;50072;50.678;13.938;2022-12-18T06:36:11;101398.34;;;-6.04;84.33
63903;BME280;50072;50.678;13.938;2022-12-18T06:38:42;101408.41;;;-5.97;84.53
63903;BME280;50072;50.678;13.938;2022-12-18T06:41:12;101411.84;;;-5.98;84.55
63903;BME280;50072;50.678;13.938;2022-12-18T06:43:39;101404.59;;;-5.89;85.04
63903;BME280;50072;50.678;13.938;2022-12-18T06:46:05;101405.06;;;-5.69;84.44
63903;BME280;50072;50.678;13.938;2022-12-18T06:48:32;101418.91;;;-5.70;83.72
63903;BME280;50072;50.678;13.938;2022-12-18T06:50:58;101418.03;;;-5.83;83.51
63903;BME280;50072;50.678;13.938;2022-12-18T06:53:25;101413.66;;;-5.84;84.37
63903;BME280;50072;50.678;13.938;2022-12-18T06:55:51;101425.63;;;-5.74;84.73
63903;BME280;50072;50.678;13.938;2022-12-18T06:58:17;101422.47;;;-5.82;83.88
63903;BME280;50072;50.678;13.938;2022-12-18T07:00:43;101420.56;;;-5.84;84.59
63903;BME280;50072;50.678;13.938;2022-12-18T07:03:09;101427.59;;;-5.83;84.70
63903;BME280;50072;50.678;13.938;2022-12-18T07:05:40;101434.63;;;-5.82;84.66
63903;BME280;50072;50.678;13.938;2022-12-18T07:08:06;101440.03;;;-5.79;84.86
63903;BME280;50072;50.678;13.938;2022-12-18T07:10:32;101442.91;;;-5.88;84.64
63903;BME280;50072;50.678;13.938;2022-12-18T07:12:58;101451.75;;;-5.86;84.89
63903;BME280;50072;50.678;13.938;2022-12-18T07:15:23;101455.47;;;-5.82;85.16
63903;BME280;50072;50.678;13.938;2022-12-18T07:17:50;101454.91;;;-5.78;85.19
63903;BME280;50072;50.678;13.938;2022-12-18T07:20:15;101446.97;;;-5.80;84.79
63903;BME280;50072;50.678;13.938;2022-12-18T07:22:41;101452.81;;;-5.70;84.69
63903;BME280;50072;50.678;13.938;2022-12-18T07:25:07;101465.69;;;-5.60;84.69
63903;BME280;50072;50.678;13.938;2022-12-18T07:27:34;101468.16;;;-5.50;84.03
63903;BME280;50072;50.678;13.938;2022-12-18T07:30:00;101457.63;;;-5.38;84.85
63903;BME280;50072;50.678;13.938;2022-12-18T07:32:26;101464.38;;;-5.28;84.59
63903;BME280;50072;50.678;13.938;2022-12-18T07:34:51;101467.50;;;-5.21;84.52
63903;BME280;50072;50.678;13.938;2022-12-18T07:37:18;101467.19;;;-5.12;83.08
63903;BME280;50072;50.678;13.938;2022-12-18T07:39:44;101471.72;;;-5.09;82.75
63903;BME280;50072;50.678;13.938;2022-12-18T07:42:09;101469.66;;;-5.01;82.01
63903;BME280;50072;50.678;13.938;2022-12-18T07:44:54;101476.25;;;-5.07;82.63
63903;BME280;50072;50.678;13.938;2022-12-18T07:47:20;101479.47;;;-5.11;82.82
63903;BME280;50072;50.678;13.938;2022-12-18T07:49:45;101474.84;;;-5.15;83.67
63903;BME280;50072;50.678;13.938;2022-12-18T07:52:11;101481.09;;;-5.13;83.77
63903;BME280;50072;50.678;13.938;2022-12-18T07:54:38;101490.09;;;-5.08;83.52
63903;BME280;50072;50.678;13.938;2022-12-18T07:57:04;101481.88;;;-5.00;83.27
63903;BME280;50072;50.678;13.938;2022-12-18T07:59:30;101476.16;;;-4.95;82.66
63903;BME280;50072;50.678;13.938;2022-12-18T08:01:56;101475.66;;;-4.89;83.13
63903;BME280;50072;50.678;13.938;2022-12-18T08:04:21;101487.84;;;-4.76;82.19
63903;BME280;50072;50.678;13.938;2022-12-18T08:06:47;101490.44;;;-4.76;82.06
63903;BME280;50072;50.678;13.938;2022-12-18T08:09:14;101492.56;;;-4.71;82.17
63903;BME280;50072;50.678;13.938;2022-12-18T08:11:40;101491.97;;;-4.80;81.95
63903;BME280;50072;50.678;13.938;2022-12-18T08:14:06;101495.56;;;-4.78;82.25
63903;BME280;50072;50.678;13.938;2022-12-18T08:16:32;101494.97;;;-4.74;82.61
63903;BME280;50072;50.678;13.938;2022-12-18T08:18:58;101500.59;;;-4.68;82.46
63903;BME280;50072;50.678;13.938;2022-12-18T08:21:26;101488.94;;;-4.73;82.81
63903;BME280;50072;50.678;13.938;2022-12-18T08:23:53;101489.56;;;-4.90;82.79
63903;BME280;50072;50.678;13.938;2022-12-18T08:26:20;101492.34;;;-4.74;82.59
63903;BME280;50072;50.678;13.938;2022-12-18T08:28:46;101491.66;;;-4.71;83.13
63903;BME280;50072;50.678;13.938;2022-12-18T08:31:12;101483.31;;;-4.65;83.14
63903;BME280;50072;50.678;13.938;2022-12-18T08:33:40;101482.31;;;-4.54;82.59
63903;BME280;50072;50.678;13.938;2022-12-18T08:36:08;101480.59;;;-4.54;82.78
63903;BME280;50072;50.678;13.938;2022-12-18T08:38:34;101495.59;;;-4.64;82.22
63903;BME280;50072;50.678;13.938;2022-12-18T08:41:03;101494.38;;;-4.70;83.49
63903;BME280;50072;50.678;13.938;2022-12-18T08:43:29;101496.19;;;-4.69;83.36
63903;BME280;50072;50.678;13.938;2022-12-18T08:46:13;101490.63;;;-4.73;83.20
63903;BME280;50072;50.678;13.938;2022-12-18T08:48:39;101485.13;;;-4.78;83.28
63903;BME280;50072;50.678;13.938;2022-12-18T08:51:05;101498.19;;;-4.78;83.88
63903;BME280;50072;50.678;13.938;2022-12-18T08:53:31;101489.84;;;-4.72;84.50
63903;BME280;50072;50.678;13.938;2022-12-18T08:55:57;101487.13;;;-4.74;84.37
63903;BME280;50072;50.678;13.938;2022-12-18T08:58:23;101500.09;;;-4.62;84.16
63903;BME280;50072;50.678;13.938;2022-12-18T09:00:49;101514.38;;;-4.57;83.54
63903;BME280;50072;50.678;13.938;2022-12-18T09:03:17;101505.84;;;-4.54;83.47
63903;BME280;50072;50.678;13.938;2022-12-18T09:05:48;101500.50;;;-4.42;83.84
63903;BME280;50072;50.678;13.938;2022-12-18T09:08:14;101508.03;;;-4.34;82.85
63903;BME280;50072;50.678;13.938;2022-12-18T09:10:48;101520.69;;;-4.40;83.14
63903;BME280;50072;50.678;13.938;2022-12-18T09:13:15;101524.13;;;-4.41;82.94
63903;BME280;50072;50.678;13.938;2022-12-18T09:15:43;101521.00;;;-4.35;83.15
63903;BME280;50072;50.678;13.938;2022-12-18T09:18:11;101513.03;;;-4.23;82.94
63903;BME280;50072;50.678;13.938;2022-12-18T09:20:37;101516.38;;;-4.26;82.99
63903;BME280;50072;50.678;13.938;2022-12-18T09:23:04;101524.53;;;-4.35;82.95
63903;BME280;50072;50.678;13.938;2022-12-18T09:25:32;101521.28;;;-4.30;83.36
63903;BME280;50072;50.678;13.938;2022-12-18T09:28:24;101525.13;;;-4.25;82.72
63903;BME280;50072;50.678;13.938;2022-12-18T09:30:52;101538.38;;;-4.22;83.39
63903;BME280;50072;50.678;13.938;2022-12-18T09:33:18;101530.53;;;-4.22;83.54
63903;BME280;50072;50.678;13.938;2022-12-18T09:35:45;101549.03;;;-4.06;82.90
63903;BME280;50072;50.678;13.938;2022-12-18T09:38:18;101557.06;;;-4.03;83.87
63903;BME280;50072;50.678;13.938;2022-12-18T09:40:51;101555.66;;;-4.11;83.54
63903;BME280;50072;50.678;13.938;2022-12-18T09:43:29;101554.47;;;-4.03;83.42
63903;BME280;50072;50.678;13.938;2022-12-18T09:46:08;101559.31;;;-4.09;83.51
63903;BME280;50072;50.678;13.938;2022-12-18T09:48:39;101563.09;;;-4.04;84.14
63903;BME280;50072;50.678;13.938;2022-12-18T09:51:15;101565.81;;;-4.02;83.64
63903;BME280;50072;50.678;13.938;2022-12-18T09:54:14;101561.19;;;-4.06;83.96
63903;BME280;50072;50.678;13.938;2022-12-18T09:56:35;101555.47;;;-4.14;83.94
63903;BME280;50072;50.678;13.938;2022-12-18T09:59:04;101551.84;;;-4.29;85.26
63903;BME280;50072;50.678;13.938;2022-12-18T10:01:32;101546.22;;;-4.22;85.86
63903;BME280;50072;50.678;13.938;2022-12-18T10:03:58;101541.91;;;-4.22;85.81
63903;BME280;50072;50.678;13.938;2022-12-18T10:12:01;101519.50;;;-4.31;86.75
63903;BME280;50072;50.678;13.938;2022-12-18T10:15:21;101514.28;;;-4.31;86.31
63903;BME280;50072;50.678;13.938;2022-12-18T10:17:59;101512.84;;;-4.26;86.81
63903;BME280;50072;50.678;13.938;2022-12-18T10:20:43;101503.22;;;-4.27;85.66
63903;BME280;50072;50.678;13.938;2022-12-18T10:26:07;101494.75;;;-4.37;86.36
63903;BME280;50072;50.678;13.938;2022-12-18T10:28:36;101493.38;;;-4.31;86.23
63903;BME280;50072;50.678;13.938;2022-12-18T10:31:14;101498.19;;;-4.24;86.42
63903;BME280;50072;50.678;13.938;2022-12-18T10:33:42;101496.25;;;-4.27;86.00
63903;BME280;50072;50.678;13.938;2022-12-18T10:36:08;101479.69;;;-4.27;85.71
63903;BME280;50072;50.678;13.938;2022-12-18T10:38:34;101479.88;;;-4.24;85.61
63903;BME280;50072;50.678;13.938;2022-12-18T10:44:15;101479.22;;;-4.07;85.85
63903;BME280;50072;50.678;13.938;2022-12-18T10:46:41;101477.44;;;-4.21;85.48
63903;BME280;50072;50.678;13.938;2022-12-18T10:49:22;101472.44;;;-4.31;86.17
63903;BME280;50072;50.678;13.938;2022-12-18T10:51:49;101468.72;;;-4.35;85.70
63903;BME280;50072;50.678;13.938;2022-12-18T10:54:21;101463.78;;;-4.30;86.44
63903;BME280;50072;50.678;13.938;2022-12-18T10:56:48;101463.50;;;-4.22;85.97
63903;BME280;50072;50.678;13.938;2022-12-18T10:59:16;101467.81;;;-4.36;85.85
63903;BME280;50072;50.678;13.938;2022-12-18T11:01:52;101468.63;;;-4.37;85.29
63903;BME280;50072;50.678;13.938;2022-12-18T11:04:23;101465.03;;;-4.39;85.90
63903;BME280;50072;50.678;13.938;2022-12-18T11:07:02;101477.06;;;-4.41;85.52
63903;BME280;50072;50.678;13.938;2022-12-18T11:09:36;101476.06;;;-4.56;85.11
63903;BME280;50072;50.678;13.938;2022-12-18T11:12:15;101465.84;;;-4.80;85.88
63903;BME280;50072;50.678;13.938;2022-12-18T11:14:46;101463.41;;;-4.63;86.47
63903;BME280;50072;50.678;13.938;2022-12-18T11:17:30;101475.69;;;-4.62;86.11
63903;BME280;50072;50.678;13.938;2022-12-18T11:20:03;101483.22;;;-4.67;85.33
63903;BME280;50072;50.678;13.938;2022-12-18T11:22:32;101488.94;;;-4.59;85.38
63903;BME280;50072;50.678;13.938;2022-12-18T11:25:00;101480.31;;;-4.72;86.06
63903;BME280;50072;50.678;13.938;2022-12-18T11:27:28;101468.34;;;-4.68;86.43
63903;BME280;50072;50.678;13.938;2022-12-18T11:30:21;101473.78;;;-4.52;86.52
63903;BME280;50072;50.678;13.938;2022-12-18T11:32:49;101472.78;;;-4.40;85.59
63903;BME280;50072;50.678;13.938;2022-12-18T11:35:59;101465.41;;;-4.32;84.44
63903;BME280;50072;50.678;13.938;2022-12-18T11:38:39;101460.47;;;-4.28;83.62
63903;BME280;50072;50.678;13.938;2022-12-18T11:41:09;101463.69;;;-4.19;83.85
63903;BME280;50072;50.678;13.938;2022-12-18T11:43:58;101467.13;;;-4.33;84.25
63903;BME280;50072;50.678;13.938;2022-12-18T11:46:32;101465.03;;;-4.39;84.77
63903;BME280;50072;50.678;13.938;2022-12-18T11:49:03;101456.56;;;-4.35;84.78
63903;BME280;50072;50.678;13.938;2022-12-18T11:51:41;101455.47;;;-4.38;84.72
63903;BME280;50072;50.678;13.938;2022-12-18T11:54:15;101455.47;;;-4.38;84.77
63903;BME280;50072;50.678;13.938;2022-12-18T11:57:07;101470.94;;;-4.41;84.89
63903;BME280;50072;50.678;13.938;2022-12-18T11:59:59;101466.94;;;-4.49;85.28
63903;BME280;50072;50.678;13.938;2022-12-18T12:03:06;101469.41;;;-4.38;84.71
63903;BME280;50072;50.678;13.938;2022-12-18T12:09:02;101466.94;;;-4.49;84.88
63903;BME280;50072;50.678;13.938;2022-12-18T12:12:00;101472.06;;;-4.51;85.32
63903;BME280;50072;50.678;13.938;2022-12-18T12:14:48;101479.00;;;-4.52;85.06
63903;BME280;50072;50.678;13.938;2022-12-18T12:17:37;101473.38;;;-4.44;84.94
63903;BME280;50072;50.678;13.938;2022-12-18T12:20:38;101469.66;;;-4.35;85.10
63903;BME280;50072;50.678;13.938;2022-12-18T12:23:22;101489.53;;;-4.37;85.27
63903;BME280;50072;50.678;13.938;2022-12-18T12:26:12;101494.94;;;-4.34;85.00
63903;BME280;50072;50.678;13.938;2022-12-18T12:37:12;101489.13;;;-4.56;85.62
63903;BME280;50072;50.678;13.938;2022-12-18T12:39:44;101492.69;;;-4.56;86.12
63903;BME280;50072;50.678;13.938;2022-12-18T12:42:34;101493.97;;;-4.36;85.54
63903;BME280;50072;50.678;13.938;2022-12-18T12:45:34;101480.78;;;-4.24;85.38
63903;BME280;50072;50.678;13.938;2022-12-18T12:48:04;101494.44;;;-4.28;84.90
63903;BME280;50072;50.678;13.938;2022-12-18T12:50:34;101495.38;;;-4.41;85.20
63903;BME280;50072;50.678;13.938;2022-12-18T12:53:06;101493.66;;;-4.54;85.62
63903;BME280;50072;50.678;13.938;2022-12-18T12:55:34;101488.84;;;-4.47;86.26
63903;BME280;50072;50.678;13.938;2022-12-18T12:58:17;101486.13;;;-4.49;85.88
63903;BME280;50072;50.678;13.938;2022-12-18T13:01:10;101483.69;;;-4.32;85.18
63903;BME280;50072;50.678;13.938;2022-12-18T13:06:41;101476.44;;;-4.23;85.19
63903;BME280;50072;50.678;13.938;2022-12-18T13:09:07;101478.94;;;-4.25;84.93
63903;BME280;50072;50.678;13.938;2022-12-18T13:11:44;101470.81;;;-4.16;84.86
63903;BME280;50072;50.678;13.938;2022-12-18T13:14:37;101470.78;;;-4.03;84.30
63903;BME280;50072;50.678;13.938;2022-12-18T13:17:25;101477.59;;;-4.05;84.86
63903;BME280;50072;50.678;13.938;2022-12-18T13:20:06;101465.69;;;-4.14;83.88
63903;BME280;50072;50.678;13.938;2022-12-18T13:22:38;101467.56;;;-4.12;84.24
63903;BME280;50072;50.678;13.938;2022-12-18T13:25:34;101469.41;;;-4.24;84.90
63903;BME280;50072;50.678;13.938;2022-12-18T13:28:07;101466.19;;;-4.20;84.64
63903;BME280;50072;50.678;13.938;2022-12-18T13:40:59;101495.47;;;-4.39;85.28
63903;BME280;50072;50.678;13.938;2022-12-18T13:48:53;101496.91;;;-4.44;85.44
63903;BME280;50072;50.678;13.938;2022-12-18T13:51:21;101495.78;;;-4.48;85.52
63903;BME280;50072;50.678;13.938;2022-12-18T13:54:28;101494.19;;;-4.46;85.40
63903;BME280;50072;50.678;13.938;2022-12-18T13:56:56;101476.09;;;-4.43;85.40
63903;BME280;50072;50.678;13.938;2022-12-18T13:59:40;101484.00;;;-4.41;85.28
63903;BME280;50072;50.678;13.938;2022-12-18T14:02:16;101488.97;;;-4.46;85.62
63903;BME280;50072;50.678;13.938;2022-12-18T14:04:47;101489.56;;;-4.50;85.86
63903;BME280;50072;50.678;13.938;2022-12-18T14:07:15;101483.91;;;-4.43;85.76
63903;BME280;50072;50.678;13.938;2022-12-18T14:09:47;101478.50;;;-4.46;85.49